Time;durP1;ratioP1;P1;durP2;ratioP2;P2;SDS_P1;SDS_P2;PMS_P1;PMS_P2;Temp;Humidity;BMP_temperature;BMP_pressure;BME280_temperature;BME280_humidity;BME280_pressure;Samples;Min_cycle;Max_cycle;Signal;HPM_P1;HPM_P2
2022/04/26 03:37:55;;;;;;;63.08;6.05;;;;;;;21.08;50.38;99281.34;7307932;19;131249;-40
2022/04/26 03:40:20;;;;;;;19.33;2.53;;;;;;;21.12;50.52;99282.69;7310537;19;158302;-35
2022/04/26 03:42:46;;;;;;;33.13;3.38;;;;;;;21.12;49.94;99287.91;7307808;19;158591;-40
2022/04/26 03:45:12;;;;;;;25.33;2.78;;;;;;;20.98;48.18;99282.34;7310569;19;154683;-39
2022/04/26 03:47:37;;;;;;;16.10;1.88;;;;;;;20.74;47.25;99288.84;7311620;19;128895;-35
2022/04/26 03:50:03;;;;;;;20.13;2.25;;;;;;;20.74;46.82;99293.25;7308918;19;158400;-36
2022/04/26 03:52:28;;;;;;;20.50;2.13;;;;;;;20.60;47.42;99275.41;7306823;19;129448;-39
2022/04/26 03:54:53;;;;;;;41.30;4.05;;;;;;;20.74;46.54;99288.03;7307394;19;154877;-35
2022/04/26 03:57:19;;;;;;;25.63;3.05;;;;;;;20.80;46.52;99292.69;7305137;19;154909;-35
2022/04/26 03:59:44;;;;;;;24.92;2.83;;;;;;;20.75;46.49;99289.69;7310729;19;140851;-32
2022/04/26 04:02:09;;;;;;;33.63;3.65;;;;;;;20.79;46.34;99291.06;7305535;19;158884;-36
2022/04/26 04:04:34;;;;;;;34.43;3.33;;;;;;;20.82;46.27;99295.16;7305986;19;155240;-41
2022/04/26 04:07:00;;;;;;;33.83;2.93;;;;;;;20.90;45.96;99290.03;7306818;19;154033;-31
2022/04/26 04:09:25;;;;;;;38.55;3.47;;;;;;;20.81;46.16;99277.84;7310718;19;129359;-38
2022/04/26 04:11:50;;;;;;;45.92;4.30;;;;;;;21.02;47.31;99294.16;7309226;19;159171;-36
2022/04/26 04:14:15;;;;;;;13.45;1.80;;;;;;;21.03;49.33;99293.19;7310932;19;153932;-36
2022/04/26 04:16:41;;;;;;;43.60;3.90;;;;;;;21.07;49.31;99290.16;7307665;19;154321;-47
2022/04/26 04:19:18;;;;;;;23.92;2.78;;;;;;;21.06;49.71;99293.72;7311757;19;130269;-38
2022/04/26 04:21:45;;;;;;;29.95;3.05;;;;;;;21.04;50.12;99294.84;7309488;19;130002;-38
2022/04/26 04:24:14;;;;;;;20.08;2.10;;;;;;;21.09;49.68;99298.66;7310185;19;129001;-42
2022/04/26 04:26:39;;;;;;;28.25;2.72;;;;;;;21.07;49.55;99294.56;7311176;19;129157;-41
2022/04/26 04:29:05;;;;;;;15.73;1.83;;;;;;;21.10;50.51;99299.50;7307892;19;129401;-35
2022/04/26 04:31:31;;;;;;;13.70;1.67;;;;;;;21.11;50.52;99309.81;7308553;19;129447;-38
2022/04/26 04:33:56;;;;;;;37.80;3.80;;;;;;;21.11;50.55;99316.81;7309924;19;129241;-34
2022/04/26 04:36:21;;;;;;;28.40;2.88;;;;;;;21.11;50.72;99317.66;7309190;19;151304;-41
2022/04/26 04:38:47;;;;;;;25.98;2.58;;;;;;;21.01;49.01;99316.84;7308599;19;158953;-40
2022/04/26 04:41:12;;;;;;;30.58;3.03;;;;;;;20.77;47.27;99323.50;7306510;19;158519;-42
2022/04/26 04:43:37;;;;;;;23.23;2.42;;;;;;;20.67;46.83;99326.13;7308812;19;141756;-34
2022/04/26 04:46:03;;;;;;;30.60;2.78;;;;;;;20.67;46.68;99328.75;7309822;19;153261;-40
2022/04/26 04:48:28;;;;;;;11.60;1.70;;;;;;;20.69;46.37;99332.84;7306026;19;157686;-37
2022/04/26 04:50:53;;;;;;;27.77;2.75;;;;;;;20.72;46.20;99336.97;7310001;19;129309;-34
2022/04/26 04:53:20;;;;;;;27.63;2.75;;;;;;;20.72;46.42;99332.56;7310096;19;129599;-36
2022/04/26 04:55:46;;;;;;;;;;;;;;;20.75;46.42;99339.31;7308897;19;129523;-38
2022/04/26 04:58:11;;;;;;;20.38;2.13;;;;;;;20.76;46.46;99337.53;7309799;19;129412;-46
2022/04/26 05:00:37;;;;;;;15.23;1.83;;;;;;;20.80;46.13;99344.94;7307815;19;129790;-38
2022/04/26 05:03:03;;;;;;;31.95;3.15;;;;;;;20.83;46.67;99344.66;7308971;19;129759;-34
2022/04/26 05:05:28;;;;;;;20.85;2.75;;;;;;;21.00;47.30;99343.13;7307399;19;129868;-41
2022/04/26 05:07:54;;;;;;;44.45;4.40;;;;;;;20.98;48.38;99352.91;7306783;19;129398;-39
2022/04/26 05:10:19;;;;;;;58.42;5.40;;;;;;;21.01;49.34;99350.81;7315856;19;130750;-43
2022/04/26 05:12:45;;;;;;;92.13;8.73;;;;;;;21.05;49.58;99348.75;7310322;19;136781;-48
2022/04/26 05:15:10;;;;;;;22.08;2.50;;;;;;;21.06;49.36;99351.22;7296269;19;129245;-45
2022/04/26 05:17:36;;;;;;;27.42;3.03;;;;;;;21.07;50.13;99352.91;7312672;19;129666;-36
2022/04/26 05:20:01;;;;;;;16.40;1.92;;;;;;;21.07;50.25;99350.28;7314578;19;139896;-43
2022/04/26 05:22:27;;;;;;;33.10;3.05;;;;;;;21.08;50.22;99353.69;7313315;19;129410;-35
2022/04/26 05:24:58;;;;;;;29.88;3.05;;;;;;;21.01;50.43;99337.75;7314543;19;152815;-35
2022/04/26 05:27:25;;;;;;;48.85;4.95;;;;;;;21.06;50.09;99351.22;7312514;19;129158;-43
2022/04/26 05:29:51;;;;;;;25.48;2.55;;;;;;;21.09;50.26;99344.91;7311743;19;129095;-40
2022/04/26 05:32:24;;;;;;;22.00;2.60;;;;;;;21.10;49.97;99347.38;7315276;19;129061;-39
2022/04/26 05:34:55;;;;;;;23.35;2.53;;;;;;;21.09;50.54;99350.94;7316747;19;129150;-36
2022/04/26 05:37:20;;;;;;;29.08;3.10;;;;;;;20.74;47.37;99350.75;7314340;19;129915;-36
2022/04/26 05:39:46;;;;;;;27.33;2.92;;;;;;;20.68;47.04;99340.81;7314129;19;159165;-34
2022/04/26 05:42:11;;;;;;;17.10;1.83;;;;;;;20.68;46.60;99340.81;7313631;19;153919;-34
2022/04/26 05:44:38;;;;;;;20.23;2.23;;;;;;;20.73;46.96;99338.63;7314458;19;154376;-38
2022/04/26 05:47:07;;;;;;;17.27;1.92;;;;;;;20.77;46.81;99339.16;7311861;19;129227;-39
2022/04/26 05:49:33;;;;;;;20.30;2.22;;;;;;;20.77;47.03;99342.63;7312294;19;130688;-33
2022/04/26 05:51:59;;;;;;;15.53;1.73;;;;;;;20.72;46.79;99342.22;7314749;19;129520;-33
2022/04/26 05:54:24;;;;;;;24.88;2.40;;;;;;;20.79;46.33;99335.47;7312943;19;128863;-40
2022/04/26 05:56:52;;;;;;;21.70;2.15;;;;;;;20.75;46.24;99336.69;7314978;19;129683;-29
2022/04/26 05:59:18;;;;;;;24.60;2.70;;;;;;;20.75;46.67;99336.69;7308976;19;130049;-35
2022/04/26 06:01:43;;;;;;;19.37;2.10;;;;;;;20.95;48.56;99334.84;7311970;19;129386;-34
2022/04/26 06:04:08;;;;;;;23.88;2.55;;;;;;;20.97;48.67;99340.78;7314829;19;153189;-37
2022/04/26 06:06:35;;;;;;;26.53;2.47;;;;;;;20.97;49.03;99335.56;7313033;19;158365;-36
2022/04/26 06:09:00;;;;;;;15.05;1.73;;;;;;;21.02;49.54;99339.44;7313951;19;131277;-44
2022/04/26 06:11:26;;;;;;;17.88;2.00;;;;;;;21.02;50.28;99336.81;7314453;19;129232;-34
2022/04/26 06:13:51;;;;;;;28.35;3.38;;;;;;;21.02;49.75;99334.19;7314412;19;153062;-40
2022/04/26 06:16:16;;;;;;;20.23;2.25;;;;;;;21.03;50.36;99341.06;7314716;19;130996;-43
2022/04/26 06:18:42;;;;;;;24.88;2.47;;;;;;;21.05;49.70;99343.53;7312444;19;155975;-40
2022/04/26 06:21:08;;;;;;;17.55;1.70;;;;;;;21.07;50.13;99341.59;7312726;19;129150;-42
2022/04/26 06:23:33;;;;;;;17.83;2.17;;;;;;;21.08;49.75;99349.31;7315037;19;128872;-37
2022/04/26 06:25:59;;;;;;;47.88;4.90;;;;;;;21.06;50.21;99339.94;7311057;19;158276;-40
2022/04/26 06:28:26;;;;;;;29.93;3.27;;;;;;;21.07;50.90;99345.06;7313969;19;130492;-44
2022/04/26 06:30:51;;;;;;;14.88;2.05;;;;;;;20.71;47.29;99344.00;7315318;19;130661;-44
2022/04/26 06:33:17;;;;;;;30.27;2.88;;;;;;;20.72;47.45;99337.78;7312813;19;130167;-36
2022/04/26 06:35:43;;;;;;;21.97;2.33;;;;;;;20.65;47.01;99341.94;7314346;19;129585;-44
2022/04/26 06:38:08;;;;;;;21.80;2.00;;;;;;;20.68;46.63;99327.75;7313524;19;129423;-37
2022/04/26 06:40:33;;;;;;;18.05;1.92;;;;;;;20.73;47.42;99338.63;7315631;19;129005;-36
2022/04/26 06:42:59;;;;;;;26.02;2.78;;;;;;;20.64;46.43;99334.25;7311651;19;136619;-34
2022/04/26 06:45:24;;;;;;;41.40;4.60;;;;;;;20.70;46.39;99338.91;7312398;19;145848;-38
2022/04/26 06:47:49;;;;;;;26.05;2.78;;;;;;;20.71;46.05;99327.47;7306953;19;130850;-42
2022/04/26 06:50:15;;;;;;;39.90;3.90;;;;;;;20.73;46.50;99338.63;7311641;19;129027;-42
2022/04/26 06:52:40;;;;;;;36.92;3.15;;;;;;;20.89;46.14;99343.28;7309206;19;129679;-43
2022/04/26 06:55:06;;;;;;;11.50;1.50;;;;;;;20.95;47.47;99345.31;7313318;19;159930;-37
2022/04/26 06:57:31;;;;;;;32.70;3.45;;;;;;;20.95;48.64;99348.75;7313020;19;129278;-40
2022/04/26 06:59:56;;;;;;;30.23;3.15;;;;;;;20.97;49.44;99346.88;7308434;19;129136;-42
2022/04/26 07:02:22;;;;;;;19.63;2.25;;;;;;;20.88;48.45;99329.38;7308721;19;154227;-38
2022/04/26 07:04:47;;;;;;;24.58;2.75;;;;;;;21.03;49.34;99341.06;7311354;19;129145;-33
2022/04/26 07:07:12;;;;;;;26.52;2.53;;;;;;;20.95;49.96;99325.25;7311109;19;129375;-38
2022/04/26 07:09:38;;;;;;;17.97;2.00;;;;;;;21.06;49.82;99340.78;7309259;19;154911;-37
2022/04/26 07:12:04;;;;;;;19.77;2.23;;;;;;;21.07;50.21;99347.66;7312053;19;128853;-37
2022/04/26 07:14:29;;;;;;;14.98;1.65;;;;;;;21.06;50.31;99346.00;7313852;19;130213;-42
2022/04/26 07:16:55;;;;;;;22.35;2.45;;;;;;;21.04;49.82;99350.53;7311812;19;158541;-42
2022/04/26 07:19:22;;;;;;;24.93;2.50;;;;;;;21.05;50.13;99344.38;7313056;19;129421;-42
2022/04/26 07:21:48;;;;;;;27.92;3.22;;;;;;;21.07;50.74;99344.22;7311920;19;128955;-43
2022/04/26 07:24:13;;;;;;;21.88;2.25;;;;;;;20.64;47.60;99329.81;7312797;19;129191;-42
2022/04/26 07:26:38;;;;;;;22.25;2.55;;;;;;;20.67;47.01;99345.25;7311657;19;158525;-44
2022/04/26 07:29:04;;;;;;;15.73;1.70;;;;;;;20.64;46.69;99339.47;7310981;19;129035;-40
2022/04/26 07:31:30;;;;;;;16.40;1.67;;;;;;;20.64;46.76;99339.47;7310588;19;129033;-42
2022/04/26 07:36:39;;;;;;;35.88;3.42;;;;;;;20.76;46.36;99343.56;7312806;19;129251;-37
2022/04/26 07:39:05;;;;;;;12.57;1.42;;;;;;;20.72;46.38;99339.59;7310424;19;154385;-40
2022/04/26 07:41:30;;;;;;;17.27;1.77;;;;;;;20.75;45.98;99341.91;7310964;19;130272;-41
2022/04/26 07:43:55;;;;;;;20.60;2.28;;;;;;;20.76;46.95;99335.72;7308410;19;159131;-39
2022/04/26 07:46:21;;;;;;;21.17;2.15;;;;;;;20.78;46.24;99341.63;7308882;19;130347;-42
2022/04/26 07:48:46;;;;;;;31.00;3.13;;;;;;;20.98;46.48;99343.28;7309314;19;129018;-39
2022/04/26 07:51:11;;;;;;;25.45;2.65;;;;;;;20.94;48.97;99341.88;7311127;19;130104;-42
2022/04/26 07:53:37;;;;;;;13.23;1.45;;;;;;;20.96;49.32;99339.94;7313672;19;131028;-37
2022/04/26 07:56:04;;;;;;;37.50;3.50;;;;;;;21.01;49.91;99340.38;7307042;19;130643;-42
2022/04/26 07:58:29;;;;;;;15.23;1.63;;;;;;;21.03;49.26;99345.47;7308239;19;129562;-37
2022/04/26 08:00:54;;;;;;;20.92;2.03;;;;;;;21.05;49.88;99344.38;7310848;19;129098;-40
2022/04/26 08:03:20;;;;;;;19.65;2.05;;;;;;;21.05;50.05;99340.91;7311401;19;157742;-39
2022/04/26 08:05:46;;;;;;;35.30;3.37;;;;;;;21.02;50.14;99336.81;7310864;19;130672;-40
2022/04/26 08:08:11;;;;;;;14.30;1.67;;;;;;;21.04;50.63;99347.13;7311101;19;129423;-42
2022/04/26 08:10:37;;;;;;;20.80;2.25;;;;;;;21.06;50.03;99345.16;7310708;19;153877;-40
2022/04/26 08:13:03;;;;;;;15.95;1.65;;;;;;;21.05;50.49;99349.59;7311998;19;131240;-41
2022/04/26 08:15:28;;;;;;;26.83;2.75;;;;;;;20.94;50.88;99325.38;7313483;19;130756;-38
2022/04/26 08:17:53;;;;;;;21.13;2.22;;;;;;;20.99;48.59;99347.53;7311770;19;129577;-37
2022/04/26 08:20:19;;;;;;;23.52;2.35;;;;;;;20.64;47.24;99349.91;7313167;19;129033;-39
2022/04/26 08:22:44;;;;;;;20.80;2.13;;;;;;;20.62;47.28;99349.22;7309333;19;129676;-37
2022/04/26 08:27:54;;;;;;;29.27;2.92;;;;;;;20.69;47.22;99342.50;7312105;19;129365;-37
2022/04/26 08:30:19;;;;;;;15.85;1.90;;;;;;;20.72;46.88;99347.44;7312179;19;129130;-41
2022/04/26 08:32:48;;;;;;;19.70;2.13;;;;;;;20.66;46.48;99340.97;7308508;19;158282;-43
2022/04/26 08:35:23;;;;;;;20.75;1.95;;;;;;;20.72;46.62;99342.22;7311583;19;129670;-38
2022/04/26 08:37:48;;;;;;;13.65;1.67;;;;;;;20.77;47.09;99340.00;7311723;19;129034;-36
2022/04/26 08:40:14;;;;;;;18.10;1.90;;;;;;;20.77;46.85;99347.84;7312149;19;129394;-36
2022/04/26 08:42:44;;;;;;;13.43;1.65;;;;;;;20.79;46.93;99338.06;7310945;19;129224;-39
2022/04/26 08:45:12;;;;;;;24.92;2.53;;;;;;;20.79;46.23;99353.75;7325082;19;130500;-40
2022/04/26 08:53:08;;;;;;;17.98;1.90;;;;;;;20.96;49.22;99345.16;7326982;19;130245;-40
2022/04/26 08:55:40;;;;;;;22.67;2.30;;;;;;;20.99;49.50;99344.91;7324465;19;129305;-37
2022/04/26 08:58:06;;;;;;;17.55;1.77;;;;;;;21.00;49.43;99356.19;7324703;19;129046;-35
2022/04/26 09:00:31;;;;;;;28.75;2.65;;;;;;;21.00;49.06;99354.41;7324861;19;129123;-39
2022/04/26 09:03:05;;;;;;;23.53;2.50;;;;;;;20.99;49.64;99344.91;7320352;19;158706;-41
2022/04/26 09:05:31;;;;;;;26.60;3.00;;;;;;;21.02;50.13;99344.66;7325034;19;130895;-41
2022/04/26 09:07:58;;;;;;;20.40;2.10;;;;;;;21.03;50.51;99356.75;7324164;19;129815;-38
2022/04/26 09:10:23;;;;;;;18.45;1.90;;;;;;;21.02;49.95;99360.34;7325274;19;129090;-38
2022/04/26 09:13:07;;;;;;;24.10;2.60;;;;;;;21.05;50.94;99365.28;7321931;19;129136;-43
2022/04/26 09:15:39;;;;;;;19.98;2.15;;;;;;;21.00;49.71;99351.81;7324032;19;129805;-29
2022/04/26 09:18:30;;;;;;;16.02;1.50;;;;;;;20.66;47.58;99355.81;7324385;19;129207;-42
2022/04/26 09:20:58;;;;;;;14.85;1.73;;;;;;;20.63;46.99;99359.53;7322514;19;154053;-36
2022/04/26 09:23:28;;;;;;;26.52;3.00;;;;;;;20.66;47.25;99361.03;7324153;19;130681;-40
2022/04/26 09:26:09;;;;;;;23.48;2.30;;;;;;;20.67;46.77;99365.31;7324267;19;130952;-37
2022/04/26 09:28:46;;;;;;;15.52;1.73;;;;;;;20.67;46.89;99365.31;7322729;19;129666;-39
2022/04/26 09:31:20;;;;;;;14.18;1.48;;;;;;;20.72;46.75;99371.75;7323394;19;129051;-42
2022/04/26 09:33:47;;;;;;;20.40;2.33;;;;;;;20.69;46.20;99368.63;7324245;19;129233;-38
2022/04/26 09:36:14;;;;;;;12.07;1.60;;;;;;;20.71;46.64;99364.88;7322799;19;129688;-38
2022/04/26 09:38:47;;;;;;;19.25;1.83;;;;;;;20.80;45.90;99365.84;7324863;19;129983;-38
2022/04/26 09:41:13;;;;;;;15.70;1.65;;;;;;;20.75;45.85;99370.66;7323492;19;129023;-37
2022/04/26 09:43:38;;;;;;;20.27;1.85;;;;;;;21.01;46.39;99363.06;7324575;19;129910;-37
2022/04/26 09:46:07;;;;;;;23.40;2.42;;;;;;;20.89;48.77;99362.38;7323423;19;129264;-35
2022/04/26 09:48:35;;;;;;;16.52;1.75;;;;;;;20.93;49.25;99370.75;7322648;19;129582;-34
2022/04/26 09:51:02;;;;;;;6.57;0.98;;;;;;;20.93;49.01;99368.97;7323949;19;129189;-36
2022/04/26 09:53:29;;;;;;;12.20;1.40;;;;;;;20.96;50.05;99360.84;7322342;19;131614;-37
2022/04/26 09:55:58;;;;;;;;;;;;;;;21.06;50.02;99364.28;7317307;19;129280;-31
2022/04/26 09:58:27;;;;;;;28.10;2.83;;;;;;;21.02;49.63;99369.97;7314909;19;129046;-33
2022/04/26 10:00:54;;;;;;;27.20;2.85;;;;;;;20.93;50.31;99355.91;7314975;19;129008;-35
2022/04/26 10:03:24;;;;;;;20.30;1.98;;;;;;;21.01;50.02;99365.69;7315677;19;129278;-45
2022/04/26 10:05:57;;;;;;;22.25;2.30;;;;;;;20.91;50.78;99357.84;7314745;19;129667;-42
2022/04/26 10:08:23;;;;;;;20.65;2.30;;;;;;;21.02;50.85;99364.72;7315469;19;128932;-44
2022/04/26 10:10:48;;;;;;;20.33;2.30;;;;;;;21.01;50.44;99369.13;7315258;19;128808;-44
2022/04/26 10:13:34;;;;;;;19.50;1.98;;;;;;;20.72;47.03;99369.13;7315784;19;131095;-39
2022/04/26 10:16:09;;;;;;;12.85;1.50;;;;;;;20.66;47.60;99366.25;7314501;19;130817;-41
2022/04/26 10:18:44;;;;;;;17.20;1.73;;;;;;;20.64;46.69;99370.81;7315541;19;129159;-42
2022/04/26 10:21:22;;;;;;;24.33;2.05;;;;;;;20.62;47.35;99373.56;7315025;19;128903;-45
2022/04/26 10:23:50;;;;;;;31.83;3.50;;;;;;;20.63;46.47;99369.16;7314988;19;129818;-39
2022/04/26 10:28:49;;;;;;;24.50;2.40;;;;;;;20.67;46.94;99362.69;7313710;19;128839;-37
2022/04/26 10:31:15;;;;;;;19.00;1.88;;;;;;;20.72;46.77;99363.09;7315112;19;129173;-44
2022/04/26 10:33:42;;;;;;;16.40;1.55;;;;;;;20.70;46.31;99359.81;7314213;19;129776;-44
2022/04/26 10:36:19;;;;;;;8.32;1.00;;;;;;;20.74;46.09;99362.00;7315075;19;130454;-45
2022/04/26 10:39:06;;;;;;;18.80;2.03;;;;;;;20.63;46.12;99343.03;7312749;19;154993;-44
2022/04/26 10:41:35;;;;;;;19.50;1.75;;;;;;;20.97;46.74;99362.56;7313818;19;128957;-43
2022/04/26 10:44:12;;;;;;;4.65;0.82;;;;;;;20.89;49.11;99354.53;7314859;19;129654;-37
2022/04/26 10:46:39;;;;;;;23.85;2.45;;;;;;;20.92;49.28;99363.91;7312863;19;159128;-43
2022/04/26 10:49:39;;;;;;;7.30;0.93;;;;;;;20.93;49.21;99366.38;7312994;19;128884;-44
2022/04/26 10:52:23;;;;;;;2.50;0.60;;;;;;;20.93;49.62;99358.53;7313328;19;129389;-44
2022/04/26 10:54:51;;;;;;;14.00;1.58;;;;;;;20.95;49.91;99359.22;7314203;19;130730;-42
2022/04/26 10:57:21;;;;;;;35.03;3.45;;;;;;;20.96;49.47;99370.50;7313167;19;129368;-45
2022/04/26 10:59:48;;;;;;;24.85;2.40;;;;;;;20.99;49.88;99363.22;7313241;19;129582;-39
2022/04/26 11:02:14;;;;;;;;;;;;;;;21.07;50.56;99367.75;7312011;19;154230;-42
2022/04/26 11:04:39;;;;;;;22.38;2.15;;;;;;;21.00;49.58;99367.50;7313404;19;132820;-39
2022/04/26 11:07:17;;;;;;;20.33;2.40;;;;;;;21.00;50.16;99364.88;7309651;19;158105;-44
2022/04/26 11:09:44;;;;;;;20.80;2.22;;;;;;;20.99;50.68;99365.81;7311573;19;129388;-40
2022/04/26 11:12:09;;;;;;;20.17;2.00;;;;;;;20.72;48.16;99363.91;7311839;19;129151;-43
2022/04/26 11:14:40;;;;;;;35.67;3.45;;;;;;;20.62;47.42;99367.50;7310669;19;157866;-37
2022/04/26 11:17:06;;;;;;;13.00;1.65;;;;;;;20.64;47.58;99368.22;7311966;19;130390;-40
2022/04/26 11:19:33;;;;;;;20.57;2.07;;;;;;;20.63;46.62;99370.00;7313340;19;128832;-36
2022/04/26 11:22:13;;;;;;;24.70;2.47;;;;;;;20.67;46.42;99365.31;7312782;19;128942;-36
2022/04/26 11:30:08;;;;;;;15.52;1.48;;;;;;;20.67;46.31;99360.09;7311875;19;128817;-41
2022/04/26 11:32:42;;;;;;;18.88;1.92;;;;;;;20.72;46.70;99373.56;7311337;19;128855;-37
2022/04/26 11:35:13;;;;;;;26.98;2.28;;;;;;;20.77;46.06;99374.75;7310275;19;130670;-41
2022/04/26 11:37:49;;;;;;;16.40;1.55;;;;;;;20.91;47.16;99375.31;7312679;19;130386;-43
2022/04/26 11:40:21;;;;;;;26.45;2.63;;;;;;;20.88;48.15;99371.19;7313050;19;129112;-43
2022/04/26 11:42:47;;;;;;;21.65;2.15;;;;;;;20.81;49.16;99359.63;7308765;19;154418;-39
2022/04/26 11:45:12;;;;;;;13.70;1.70;;;;;;;20.91;48.83;99373.50;7312495;19;129096;-34
2022/04/26 11:47:40;;;;;;;24.08;2.53;;;;;;;20.94;49.91;99375.03;7309370;19;159177;-40
2022/04/26 11:50:16;;;;;;;38.15;3.55;;;;;;;20.96;49.68;99376.53;7306382;19;129060;-42
2022/04/26 11:52:45;;;;;;;17.83;1.73;;;;;;;20.99;49.47;99378.09;7308287;19;129173;-41
2022/04/26 11:55:24;;;;;;;32.28;2.75;;;;;;;20.91;49.68;99363.06;7309379;19;130141;-44
2022/04/26 11:57:50;;;;;;;46.55;4.10;;;;;;;20.99;50.36;99368.44;7310051;19;129345;-39
2022/04/26 12:00:18;;;;;;;19.55;1.90;;;;;;;20.95;50.51;99369.66;7311489;19;128949;-43
2022/04/26 12:02:45;;;;;;;20.10;1.98;;;;;;;20.89;50.43;99349.31;7307281;19;129411;-36
2022/04/26 12:05:12;;;;;;;21.15;2.15;;;;;;;20.98;50.54;99369.41;7310677;19;129248;-41
2022/04/26 12:07:38;;;;;;;22.75;2.25;;;;;;;20.83;48.37;99369.94;7308130;19;131049;-43
2022/04/26 12:10:23;;;;;;;23.60;2.20;;;;;;;20.54;47.78;99359.56;7307564;19;129708;-44
2022/04/26 12:13:01;;;;;;;26.42;2.63;;;;;;;20.62;46.62;99367.50;7307594;19;128929;-45
2022/04/26 12:15:29;;;;;;;50.35;4.68;;;;;;;20.61;47.02;99364.06;7309083;19;129371;-35
2022/04/26 12:18:09;;;;;;;25.02;2.40;;;;;;;20.61;47.01;99365.84;7305599;19;129968;-36
2022/04/26 12:20:36;;;;;;;47.88;4.05;;;;;;;20.67;47.09;99360.91;7307669;19;129101;-37
2022/04/26 12:23:03;;;;;;;21.65;1.98;;;;;;;20.67;46.58;99357.47;7307730;19;128883;-42
2022/04/26 12:25:29;;;;;;;36.05;3.58;;;;;;;20.66;46.58;99358.41;7308346;19;129547;-40
2022/04/26 12:28:07;;;;;;;73.18;6.05;;;;;;;20.69;46.74;99358.16;7306421;19;131067;-39
2022/04/26 12:30:37;;;;;;;9.98;1.17;;;;;;;20.67;46.67;99360.91;7307354;19;130137;-39
2022/04/26 12:33:02;;;;;;;23.20;2.28;;;;;;;20.72;46.02;99344.81;7305326;19;129640;-38
2022/04/26 12:35:28;;;;;;;58.72;5.13;;;;;;;20.92;46.48;99350.81;7309316;19;129575;-34
2022/04/26 12:38:07;;;;;;;24.50;2.43;;;;;;;20.87;48.84;99353.03;7307199;19;158293;-37
2022/04/26 12:40:33;;;;;;;20.80;1.80;;;;;;;20.87;48.58;99359.09;7308598;19;129057;-40
2022/04/26 12:42:59;;;;;;;43.22;3.40;;;;;;;20.88;49.00;99347.66;7307068;19;129834;-44
2022/04/26 12:45:25;;;;;;;34.15;3.72;;;;;;;20.93;49.69;99350.69;7308774;19;130821;-38
2022/04/26 12:51:11;;;;;;;43.53;3.75;;;;;;;20.97;50.14;99344.25;7305997;19;129034;-37
2022/04/26 12:53:37;;;;;;;23.35;2.05;;;;;;;20.95;49.93;99338.31;7308004;19;129175;-38
2022/04/26 12:56:07;;;;;;;19.63;1.90;;;;;;;20.98;50.19;99338.06;7308417;19;130745;-38
2022/04/26 12:58:35;;;;;;;20.58;1.80;;;;;;;20.97;50.23;99333.81;7307160;19;130346;-38
2022/04/26 13:01:01;;;;;;;22.45;2.05;;;;;;;20.98;49.98;99327.59;7308340;19;129095;-44
2022/04/26 13:03:27;;;;;;;17.73;1.83;;;;;;;20.96;50.56;99326.88;7308097;19;129048;-36
2022/04/26 13:06:03;;;;;;;26.80;2.85;;;;;;;20.73;47.85;99330.78;7308340;19;158384;-41
2022/04/26 13:08:28;;;;;;;20.88;2.03;;;;;;;20.57;47.66;99322.72;7307324;19;129899;-35
2022/04/26 13:10:54;;;;;;;25.73;2.42;;;;;;;20.56;47.20;99315.84;7309543;19;153584;-37
2022/04/26 13:13:20;;;;;;;18.83;1.83;;;;;;;20.56;47.13;99311.44;7310425;19;129039;-40
2022/04/26 13:15:45;;;;;;;24.38;2.42;;;;;;;20.68;46.31;99309.47;7310479;19;130362;-36
2022/04/26 13:18:12;;;;;;;21.52;1.95;;;;;;;20.64;46.48;99322.00;7309532;19;134520;-41
2022/04/26 13:20:38;;;;;;;8.40;0.98;;;;;;;20.63;47.01;99319.53;7310232;19;129188;-43
2022/04/26 13:23:03;;;;;;;20.00;1.88;;;;;;;20.53;47.02;99303.03;7307931;19;128849;-42
2022/04/26 13:25:30;;;;;;;41.17;3.83;;;;;;;20.63;47.02;99319.53;7307797;19;148146;-39
2022/04/26 13:27:56;;;;;;;;;;;;;;;20.67;46.09;99313.91;7310335;19;129671;-44
2022/04/26 13:30:21;;;;;;;21.27;2.28;;;;;;;20.72;46.34;99316.88;7312040;19;129295;-39
2022/04/26 13:32:47;;;;;;;53.10;4.70;;;;;;;20.82;45.93;99321.28;7313477;19;129083;-40
2022/04/26 13:35:13;;;;;;;23.17;2.17;;;;;;;20.91;47.98;99305.56;7314931;19;130800;-37
2022/04/26 13:37:39;;;;;;;22.08;2.10;;;;;;;20.89;48.57;99307.50;7315148;19;129485;-36
2022/04/26 13:40:06;;;;;;;12.83;1.30;;;;;;;20.89;49.42;99322.38;7315292;19;129065;-44
2022/04/26 13:42:31;;;;;;;21.48;2.13;;;;;;;20.89;49.71;99317.94;7313412;19;130024;-39
2022/04/26 13:44:58;;;;;;;31.10;3.00;;;;;;;20.92;49.46;99307.25;7314685;19;147986;-41
2022/04/26 13:47:24;;;;;;;27.10;2.35;;;;;;;20.91;49.86;99316.03;7313158;19;129433;-34
2022/04/26 13:49:51;;;;;;;30.93;2.97;;;;;;;20.94;49.65;99310.50;7314647;19;128802;-40
2022/04/26 13:52:17;;;;;;;28.27;2.70;;;;;;;20.95;49.66;99306.94;7313281;19;129916;-43
2022/04/26 13:54:42;;;;;;;21.38;2.20;;;;;;;20.97;50.31;99299.81;7315890;19;129636;-46
2022/04/26 13:57:09;;;;;;;30.73;3.05;;;;;;;20.95;50.52;99306.94;7314196;19;129416;-38
2022/04/26 13:59:34;;;;;;;19.75;1.85;;;;;;;20.97;50.49;99305.06;7316549;19;129006;-35
2022/04/26 14:02:00;;;;;;;16.25;1.60;;;;;;;20.98;50.43;99301.47;7313512;19;154344;-42
2022/04/26 14:04:26;;;;;;;26.05;2.47;;;;;;;20.93;49.08;99306.25;7314848;19;129915;-42
2022/04/26 14:06:51;;;;;;;44.17;4.40;;;;;;;20.55;47.45;99308.97;7314589;19;129500;-41
2022/04/26 14:09:21;;;;;;;23.83;2.23;;;;;;;20.60;47.04;99314.59;7313341;19;156057;-38
2022/04/26 14:11:46;;;;;;;22.55;2.10;;;;;;;20.53;47.28;99305.66;7314378;19;129604;-38
2022/04/26 14:22:30;;;;;;;14.43;1.52;;;;;;;20.64;47.01;99313.34;7313365;19;128893;-41
2022/04/26 14:24:56;;;;;;;18.55;1.92;;;;;;;20.69;46.84;99311.16;7315489;19;130171;-39
2022/04/26 14:27:21;;;;;;;19.00;1.77;;;;;;;20.64;46.60;99310.75;7313661;19;129524;-43
2022/04/26 14:29:48;;;;;;;22.07;2.10;;;;;;;20.63;46.36;99309.06;7312940;19;153848;-45
2022/04/26 14:32:13;;;;;;;;;;;;;;;20.76;46.64;99314.81;7312888;19;128894;-40
2022/04/26 14:34:39;;;;;;;17.38;1.60;;;;;;;20.69;46.74;99298.09;7316128;19;130492;-37
2022/04/26 14:37:05;;;;;;;17.95;1.75;;;;;;;20.77;46.39;99307.81;7314306;19;130496;-42
2022/04/26 14:39:30;;;;;;;22.83;2.03;;;;;;;20.91;47.57;99310.00;7314882;19;129139;-42
2022/04/26 14:41:55;;;;;;;26.90;2.80;;;;;;;20.86;48.27;99306.97;7308871;19;154699;-44
2022/04/26 14:44:21;;;;;;;20.45;2.15;;;;;;;20.89;48.01;99315.34;7314641;19;129646;-40
2022/04/26 14:46:46;;;;;;;32.43;3.30;;;;;;;20.89;49.53;99317.94;7311694;19;159420;-36
2022/04/26 14:49:11;;;;;;;18.92;1.60;;;;;;;20.94;49.42;99310.50;7314622;19;154801;-38
2022/04/26 14:51:37;;;;;;;21.30;1.98;;;;;;;20.93;49.61;99315.88;7312301;19;129079;-41
2022/04/26 14:54:02;;;;;;;18.52;1.52;;;;;;;20.90;50.04;99314.38;7315665;19;135183;-38
2022/04/26 14:56:27;;;;;;;19.00;1.80;;;;;;;20.95;49.87;99316.56;7311761;19;132851;-41
2022/04/26 14:58:52;;;;;;;26.98;2.60;;;;;;;20.94;49.57;99320.97;7313302;19;155691;-44
2022/04/26 15:01:18;;;;;;;27.08;2.50;;;;;;;20.94;49.88;99320.97;7313211;19;129248;-45
2022/04/26 15:03:44;;;;;;;13.02;1.38;;;;;;;20.95;49.95;99324.41;7312807;19;158936;-38
2022/04/26 15:06:10;;;;;;;20.70;1.92;;;;;;;20.96;50.12;99324.25;7313633;19;129168;-42
2022/04/26 15:11:19;;;;;;;25.77;2.50;;;;;;;20.59;47.68;99326.00;7314015;19;128949;-40
2022/04/26 15:16:37;;;;;;;20.25;1.83;;;;;;;20.62;47.88;99321.34;7312995;19;129161;-38
2022/04/26 15:19:07;;;;;;;16.35;1.50;;;;;;;20.67;46.94;99329.56;7313269;19;128682;-36
2022/04/26 15:21:33;;;;;;;17.20;1.70;;;;;;;20.64;46.91;99323.81;7311193;19;129181;-41
2022/04/26 15:23:58;;;;;;;24.80;2.30;;;;;;;20.65;46.48;99326.28;7312498;19;135270;-45
2022/04/26 15:26:27;;;;;;;19.48;1.77;;;;;;;20.72;46.06;99337.78;7310330;19;130590;-42
2022/04/26 15:28:52;;;;;;;34.70;3.08;;;;;;;20.73;46.46;99333.41;7308896;19;129141;-42
2022/04/26 15:31:18;;;;;;;40.55;3.63;;;;;;;20.74;46.09;99328.03;7312019;19;130184;-43
2022/04/26 15:33:46;;;;;;;32.77;2.93;;;;;;;20.88;47.06;99329.38;7310946;19;130138;-38